Avión de Cathay Dragon sufre de un “tail strike”

El vuelo KA-248 de Cathay Dragon operado por un Airbus A321-200 rosó la parte posterior del empenaje cuando este se encontraba aterrizando en la pista 05 del Aeropuerto de Siem Reap, Camboya, procedente del Internacional de Hong Kong.

A bordo, 143 pasajeros quienes no sufrieron de heridas; uno de los pasajeros de nombre Nicky Law, aseguró que la aeronave aterrizó fuerte, rebotó y golpeo la pista nuevamente, Law pudo grabar el incidente y hacerlo público a través de Facebook.

Al respecto, el vocero de la aerolínea comentó que no es momento aún para determinar las causas del accidente ocurrido el pasado 3 de marzo, pero confirmó que las autoridades y la compañía se encuentran bajo un proceso de investigación. La aeronave recibió daños sustanciales.

El vuelo que saldría nuevamente ese mismo viernes hacia Hong Kong tuvo que ser cancelado y los 160 pasajeros fueron puestos en otros vuelos, mientras un equipo de ingenieros de Cathay Dragon llegaron un día después para reparar la aeronave y ponerla en operación nuevamente.

Según reportes METAR, la intensidad del viento al momento del toque (03:08 UTC), era de entre 6 y 7 nudos de intensidad.

VDSR 030330Z 12006KT 090V150 9000 NSC 28/16 Q1011 
VDSR 030300Z 13007KT 090V160 9000 NSC 27 / 16 Q1011

Deja tu comentario.

También te podría gustar...

PHP Code Snippets Powered By : XYZScripts.com